Trinity and Klamath River Increase Flow Schedule 9/10/2015


Reclamation to Release Additional Water from Trinity Reservoir to Supplement Flows in the Lower Klamath River

REDDING, Calif. – The Bureau of Reclamation will provide a one-day pulse flow from Lewiston Dam to help protect returning adult fall-run Chinook salmon in the lower Klamath River as identified in the Final Environmental Assessment and Finding of No Significant Impact for this project which are available at http://www.usbr.gov/mp/nepa/nepa_projdetails.cfm?Project_ID=22309.

In addition to the current supplemental flows being released out of Lewiston Dam to protect salmon, the one-day pulse flow is scheduled to commence on Tuesday evening, September 8, as a secondary preventative measure. The pulse flow will be implemented because of the continued presence of low-level infections of adult salmon by Ich, the disease thought primarily responsible for the fish die-off in 2002.

The flow from Lewiston Dam will increase from the current rate of 1,100 cubic feet per second and would peak at approximately 3,300 cfs for one day; it would then begin ramping down until reaching approximately 1,100 cfs the following day.

The public is urged to take all necessary precautions on or near the river while flows are high.

Date Time From (cfs) To (cfs)
9/8/2015 2000 1,100 1,350
9/8/2015 2200 1,350 1,600
9/9/2015 0001 1,600 1,850
9/9/2015 0200 1,850 2,100
9/9/2015 0400 2,100 2,600
9/9/2015 0600 2,600 3,100
9/9/2015 0800 3,100 3,250
9/10/2015 0800 3,250 3,050
9/10/2015 1200 3,050 2,850
9/10/2015 1600 2,850 2,650
9/10/2015 2000 2,650 2,450
9/11/2015 0001 2,450 2,250
9/11/2015 0400 2,250 2,050
9/11/2015 0800 2,050 1,950
9/11/2015 1200 1,950 1,850
9/11/2015 1600 1,850 1,750
9/11/2015 2000 1,750 1,650
9/12/2015 0001 1,650 1,550
9/12/2015 0400 1,550 1,450
9/12/2015 0800 1,450 1,350
9/12/2015 1200 1,350 1,250
9/12/2015 1600 1,250 1,100

Leave a comment

Your email address will not be published. Required fields are marked *